createdAt,value
2018-12-19T00:00:50.152Z,101672.95
2018-12-19T00:03:17.685Z,101673.41
2018-12-19T00:05:45.332Z,101671.20
2018-12-19T00:08:12.858Z,101671.15
2018-12-19T00:10:40.357Z,101668.06
2018-12-19T00:13:09.793Z,101659.27
2018-12-19T00:15:37.317Z,101659.66
2018-12-19T00:18:04.833Z,101664.94
2018-12-19T00:20:32.405Z,101668.41
2018-12-19T00:22:59.928Z,101659.66
2018-12-19T00:25:27.457Z,101662.29
2018-12-19T00:27:54.995Z,101655.20
2018-12-19T00:30:22.535Z,101654.77
2018-12-19T00:32:50.106Z,101650.76
2018-12-19T00:35:17.655Z,101649.88
2018-12-19T00:37:45.214Z,101645.48
2018-12-19T00:40:12.782Z,101642.84
2018-12-19T00:42:40.662Z,101647.69
2018-12-19T00:45:08.331Z,101646.80
2018-12-19T00:47:35.843Z,101640.64
2018-12-19T00:50:03.527Z,101640.20
2018-12-19T00:52:31.502Z,101637.13
2018-12-19T00:54:59.057Z,101639.77
2018-12-19T00:57:26.628Z,101647.24
2018-12-19T00:59:54.180Z,101644.64
2018-12-19T01:02:21.738Z,101640.25
2018-12-19T01:04:49.261Z,101638.48
2018-12-19T01:07:16.801Z,101638.05
2018-12-19T01:09:44.424Z,101622.64
2018-12-19T01:12:11.935Z,101627.48
2018-12-19T01:14:39.861Z,101624.80
2018-12-19T01:17:07.421Z,101625.69
2018-12-19T01:19:34.967Z,101630.95
2018-12-19T01:22:02.465Z,101624.36
2018-12-19T01:24:30.085Z,101621.77
2018-12-19T01:26:57.658Z,101620.89
2018-12-19T01:29:25.163Z,101610.33
2018-12-19T01:31:52.768Z,101605.05
2018-12-19T01:34:20.346Z,101605.93
2018-12-19T01:36:47.866Z,101608.12
2018-12-19T01:39:15.649Z,101615.65
2018-12-19T01:41:43.253Z,101621.81
2018-12-19T01:44:10.878Z,101622.70
2018-12-19T01:46:38.442Z,101619.66
2018-12-19T01:49:05.999Z,101628.91
2018-12-19T01:51:33.493Z,101617.45
2018-12-19T01:54:01.041Z,101629.78
2018-12-19T01:56:28.602Z,101618.34
2018-12-19T01:58:56.128Z,101616.58
2018-12-19T02:01:23.715Z,101615.26
2018-12-19T02:03:51.217Z,101613.98
2018-12-19T02:06:18.815Z,101610.86
2018-12-19T02:08:46.374Z,101604.70
2018-12-19T02:11:14.038Z,101608.66
2018-12-19T02:13:41.965Z,101593.22
2018-12-19T02:16:09.495Z,101592.33
2018-12-19T02:18:37.229Z,101598.09
2018-12-19T02:21:04.780Z,101595.02
2018-12-19T02:23:32.388Z,101588.85
2018-12-19T02:25:59.921Z,101590.17
2018-12-19T02:28:27.469Z,101583.97
2018-12-19T02:30:55.127Z,101581.77
2018-12-19T02:33:22.633Z,101578.28
2018-12-19T02:35:50.249Z,101583.97
2018-12-19T02:38:17.888Z,101580.89
2018-12-19T02:40:45.469Z,101580.89
2018-12-19T02:43:14.274Z,101580.89
2018-12-19T02:45:41.819Z,101582.20
2018-12-19T02:48:09.321Z,101578.21
2018-12-19T02:50:36.832Z,101575.61
2018-12-19T02:53:04.398Z,101569.88
2018-12-19T02:55:31.892Z,101565.92
2018-12-19T02:57:59.414Z,101561.05
2018-12-19T03:00:26.977Z,101557.09
2018-12-19T03:02:54.540Z,101557.97
2018-12-19T03:05:22.094Z,101555.77
2018-12-19T03:07:49.653Z,101561.05
2018-12-19T03:10:17.151Z,101558.36
2018-12-19T03:12:44.673Z,101545.61
2018-12-19T03:15:12.178Z,101552.24
2018-12-19T03:17:39.796Z,101560.56
2018-12-19T03:20:07.493Z,101554.84
2018-12-19T03:22:35.115Z,101552.69
2018-12-19T03:25:02.676Z,101548.69
2018-12-19T03:27:30.175Z,101544.73
2018-12-19T03:29:57.715Z,101546.48
2018-12-19T03:32:25.257Z,101552.60
2018-12-19T03:34:52.950Z,101549.56
2018-12-19T03:37:20.586Z,101549.08
2018-12-19T03:39:50.434Z,101539.44
2018-12-19T03:42:17.754Z,101542.48
2018-12-19T03:44:45.313Z,101538.56
2018-12-19T03:47:13.490Z,101539.84
2018-12-19T03:49:41.259Z,101542.05
2018-12-19T03:52:08.810Z,101538.97
2018-12-19T03:54:36.320Z,101535.88
2018-12-19T03:57:05.318Z,101539.37
2018-12-19T03:59:32.851Z,101522.20
2018-12-19T04:02:00.413Z,101523.53
2018-12-19T04:04:27.909Z,101511.64
2018-12-19T04:06:55.496Z,101521.33
2018-12-19T04:09:22.996Z,101516.92
2018-12-19T04:11:50.619Z,101513.41
2018-12-19T04:14:18.114Z,101501.97
2018-12-19T04:16:45.655Z,101494.48
2018-12-19T04:19:13.301Z,101491.85
2018-12-19T04:21:40.861Z,101485.25
2018-12-19T04:24:08.363Z,101487.89
2018-12-19T04:26:35.879Z,101470.30
2018-12-19T04:29:03.389Z,101469.01
2018-12-19T04:31:30.897Z,101457.98
2018-12-19T04:33:58.482Z,101462.41
2018-12-19T04:36:26.014Z,101464.61
2018-12-19T04:38:53.584Z,101456.29
2018-12-19T04:41:21.137Z,101437.81
2018-12-19T04:43:48.652Z,101438.25
2018-12-19T04:46:16.159Z,101434.29
2018-12-19T04:48:43.721Z,101436.48
2018-12-19T04:51:11.274Z,101440.05
2018-12-19T04:53:39.590Z,101425.93
2018-12-19T04:56:07.133Z,101418.05
2018-12-19T04:58:34.696Z,101415.00
2018-12-19T05:01:02.341Z,101416.31
2018-12-19T05:03:29.893Z,101411.51
2018-12-19T05:05:57.429Z,101419.43
2018-12-19T05:08:24.956Z,101416.79
2018-12-19T05:10:52.574Z,101412.42
2018-12-19T05:13:20.133Z,101398.34
2018-12-19T05:15:47.632Z,101388.66
2018-12-19T05:18:15.120Z,101398.36
2018-12-19T05:20:42.646Z,101398.36
2018-12-19T05:23:10.163Z,101392.23
2018-12-19T05:25:37.670Z,101401.91
2018-12-19T05:28:05.292Z,101404.55
2018-12-19T05:30:32.989Z,101401.50
2018-12-19T05:33:00.508Z,101402.83
2018-12-19T05:35:28.073Z,101401.53
2018-12-19T05:37:55.633Z,101399.33
2018-12-19T05:40:23.148Z,101396.71
2018-12-19T05:42:50.754Z,101391.88
2018-12-19T05:45:18.415Z,101402.87
2018-12-19T05:47:45.978Z,101405.98
2018-12-19T05:50:14.635Z,101401.58
2018-12-19T05:52:42.307Z,101401.58
2018-12-19T05:55:10.094Z,101402.02
2018-12-19T05:57:37.650Z,101392.78
2018-12-19T06:00:07.280Z,101387.05
2018-12-19T06:02:34.926Z,101388.78
2018-12-19T06:05:02.684Z,101385.70
2018-12-19T06:07:30.186Z,101383.50
2018-12-19T06:09:57.853Z,101377.78
2018-12-19T06:12:25.502Z,101382.18
2018-12-19T06:14:53.130Z,101391.42
2018-12-19T06:17:20.622Z,101381.30
2018-12-19T06:19:48.254Z,101376.46
2018-12-19T06:22:15.810Z,101369.86
2018-12-19T06:24:43.378Z,101374.26
2018-12-19T06:27:10.933Z,101384.82
2018-12-19T06:29:38.437Z,101379.54
2018-12-19T06:32:06.049Z,101377.78
2018-12-19T06:34:33.559Z,101372.94
2018-12-19T06:37:01.068Z,101377.34
2018-12-19T06:39:28.802Z,101379.98
2018-12-19T06:41:56.296Z,101382.19
2018-12-19T06:44:23.789Z,101382.19
2018-12-19T06:46:51.411Z,101381.30
2018-12-19T06:49:18.974Z,101382.63
2018-12-19T06:51:46.644Z,101389.67
2018-12-19T06:54:14.194Z,101383.92
2018-12-19T06:56:41.754Z,101382.19
2018-12-19T06:59:09.245Z,101376.46
2018-12-19T07:01:37.041Z,101383.92
2018-12-19T07:04:04.572Z,101368.95
2018-12-19T07:06:32.237Z,101368.52
2018-12-19T07:08:59.807Z,101363.23
2018-12-19T07:11:27.378Z,101364.08
2018-12-19T07:13:54.913Z,101368.05
2018-12-19T07:16:22.447Z,101369.37
2018-12-19T07:18:49.944Z,101375.53
2018-12-19T07:21:17.597Z,101379.94
2018-12-19T07:23:45.172Z,101377.30
2018-12-19T07:26:12.682Z,101370.25
2018-12-19T07:28:40.249Z,101376.88
2018-12-19T07:31:07.802Z,101366.31
2018-12-19T07:33:35.361Z,101368.07
2018-12-19T07:36:02.857Z,101366.78
2018-12-19T07:38:30.407Z,101362.81
2018-12-19T07:40:57.944Z,101370.30
2018-12-19T07:43:25.501Z,101347.41
2018-12-19T07:45:53.165Z,101367.66
2018-12-19T07:48:20.902Z,101361.52
2018-12-19T07:50:48.405Z,101359.29
2018-12-19T07:53:15.943Z,101363.72
2018-12-19T07:55:43.513Z,101360.20
2018-12-19T07:58:11.034Z,101348.31
2018-12-19T08:00:38.584Z,101348.77
2018-12-19T08:03:06.184Z,101355.37
2018-12-19T08:05:33.763Z,101355.82
2018-12-19T08:08:01.267Z,101358.02
2018-12-19T08:10:28.870Z,101351.86
2018-12-19T08:12:56.431Z,101353.20
2018-12-19T08:15:23.983Z,101350.09
2018-12-19T08:17:51.477Z,101349.23
2018-12-19T08:20:18.977Z,101347.02
2018-12-19T08:22:46.464Z,101350.11
2018-12-19T08:25:13.975Z,101347.91
2018-12-19T08:27:41.586Z,101351.00
2018-12-19T08:30:09.736Z,101356.28
2018-12-19T08:32:37.331Z,101354.54
2018-12-19T08:35:06.103Z,101355.86
2018-12-19T08:37:33.775Z,101361.12
2018-12-19T08:40:01.326Z,101338.66
2018-12-19T08:42:28.911Z,101345.73
2018-12-19T08:44:56.547Z,101343.09
2018-12-19T08:47:24.252Z,101348.84
2018-12-19T08:49:51.801Z,101357.66
2018-12-19T08:52:19.372Z,101356.32
2018-12-19T08:54:46.902Z,101355.02
2018-12-19T08:57:14.490Z,101362.50
2018-12-19T08:59:42.122Z,101359.88
2018-12-19T09:02:09.676Z,101365.20
2018-12-19T09:04:37.338Z,101355.48
2018-12-19T09:07:04.868Z,101360.81
2018-12-19T09:09:32.425Z,101358.17
2018-12-19T09:11:59.942Z,101349.38
2018-12-19T09:14:27.493Z,101347.61
2018-12-19T09:16:55.000Z,101331.75
2018-12-19T09:19:22.537Z,101324.27
2018-12-19T09:21:50.077Z,101334.41
2018-12-19T09:24:17.610Z,101322.06
2018-12-19T09:26:45.114Z,101331.33
2018-12-19T09:29:12.731Z,101319.88
2018-12-19T09:31:42.444Z,101323.81
2018-12-19T09:34:09.953Z,101319.85
2018-12-19T09:36:37.571Z,101314.10
2018-12-19T09:39:06.349Z,101317.64
2018-12-19T09:41:34.019Z,101315.00
2018-12-19T09:44:02.115Z,101304.87
2018-12-19T09:46:29.680Z,101309.73
2018-12-19T09:48:57.319Z,101285.04
2018-12-19T09:51:24.826Z,101274.48
2018-12-19T09:53:52.405Z,101276.69
2018-12-19T09:56:19.925Z,101270.52
2018-12-19T09:58:47.439Z,101280.66
2018-12-19T10:01:14.979Z,101276.70
2018-12-19T10:03:42.505Z,101272.30
2018-12-19T10:06:10.050Z,101276.70
2018-12-19T10:08:37.554Z,101289.51
2018-12-19T10:11:05.143Z,101311.13
2018-12-19T10:13:32.645Z,101303.20
2018-12-19T10:16:00.262Z,101293.48
2018-12-19T10:18:27.822Z,101295.70
2018-12-19T10:20:55.392Z,101294.84
2018-12-19T10:23:22.896Z,101293.95
2018-12-19T10:25:52.387Z,101293.08
2018-12-19T10:28:21.838Z,101288.23
2018-12-19T10:30:49.417Z,101282.49
2018-12-19T10:33:16.980Z,101285.14
2018-12-19T10:35:44.534Z,101287.34
2018-12-19T10:38:12.064Z,101274.56
2018-12-19T10:40:39.566Z,101264.88
2018-12-19T10:43:07.109Z,101264.88
2018-12-19T10:45:34.610Z,101257.83
2018-12-19T10:48:02.495Z,101255.60
2018-12-19T10:50:30.096Z,101259.58
2018-12-19T10:52:57.593Z,101254.72
2018-12-19T10:55:25.216Z,101243.25
2018-12-19T10:57:52.793Z,101240.61
2018-12-19T11:00:25.964Z,101232.25
2018-12-19T11:02:53.497Z,101233.55
2018-12-19T11:05:21.001Z,101237.08
2018-12-19T11:07:48.651Z,101240.61
2018-12-19T11:10:16.218Z,101236.64
2018-12-19T11:12:43.727Z,101222.07
2018-12-19T11:15:11.224Z,101232.23
2018-12-19T11:17:38.902Z,101216.78
2018-12-19T11:20:08.981Z,101217.63
2018-12-19T11:22:36.520Z,101223.36
2018-12-19T11:25:04.999Z,101215.45
2018-12-19T11:27:32.561Z,101212.35
2018-12-19T11:30:00.071Z,101208.81
2018-12-19T11:32:27.629Z,101207.92
2018-12-19T11:34:55.193Z,101211.91
2018-12-19T11:37:22.755Z,101206.14
2018-12-19T11:39:50.266Z,101211.45
2018-12-19T11:42:17.808Z,101207.94
2018-12-19T11:44:45.330Z,101205.73
2018-12-19T11:47:12.903Z,101205.70
2018-12-19T11:49:40.403Z,101198.20
2018-12-19T11:52:07.905Z,101199.53
2018-12-19T11:54:35.466Z,101195.98
2018-12-19T11:57:03.104Z,101208.34
2018-12-19T11:59:30.691Z,101203.95
2018-12-19T12:01:58.247Z,101199.49
2018-12-19T12:04:25.821Z,101201.73
2018-12-19T12:06:53.363Z,101199.48
2018-12-19T12:09:20.881Z,101201.71
2018-12-19T12:11:48.386Z,101199.95
2018-12-19T12:14:15.920Z,101193.30
2018-12-19T12:16:43.454Z,101192.89
2018-12-19T12:19:10.965Z,101195.97
2018-12-19T12:21:38.466Z,101181.81
2018-12-19T12:24:06.091Z,101173.85
2018-12-19T12:26:33.755Z,101166.80
2018-12-19T12:29:01.266Z,101166.34
2018-12-19T12:31:28.794Z,101166.34
2018-12-19T12:33:56.292Z,101160.59
2018-12-19T12:36:23.819Z,101152.21
2018-12-19T12:38:51.346Z,101148.66
2018-12-19T12:41:18.841Z,101155.72
2018-12-19T12:43:46.332Z,101152.66
2018-12-19T12:46:13.834Z,101147.77
2018-12-19T12:48:41.336Z,101153.50
2018-12-19T12:51:08.878Z,101133.62
2018-12-19T12:53:36.515Z,101139.37
2018-12-19T12:56:04.170Z,101139.34
2018-12-19T12:58:31.692Z,101129.58
2018-12-19T13:00:59.197Z,101126.53
2018-12-19T13:03:26.741Z,101135.37
2018-12-19T13:05:54.304Z,101126.54
2018-12-19T13:08:21.858Z,101125.66
2018-12-19T13:10:49.353Z,101123.41
2018-12-19T13:13:16.870Z,101132.70
2018-12-19T13:15:45.632Z,101126.48
2018-12-19T13:18:14.639Z,101129.14
2018-12-19T13:20:42.534Z,101139.73
2018-12-19T13:23:10.058Z,101136.19
2018-12-19T13:25:37.561Z,101138.41
2018-12-19T13:28:05.111Z,101132.23
2018-12-19T13:30:32.662Z,101135.75
2018-12-19T13:33:00.222Z,101133.95
2018-12-19T13:35:28.274Z,101136.13
2018-12-19T13:37:55.778Z,101137.02
2018-12-19T13:40:23.322Z,101145.86
2018-12-19T13:42:50.872Z,101142.74
2018-12-19T13:45:18.433Z,101137.50
2018-12-19T13:47:46.043Z,101137.00
2018-12-19T13:50:13.601Z,101134.80
2018-12-19T13:52:41.216Z,101142.75
2018-12-19T13:55:08.793Z,101147.14
2018-12-19T13:57:36.336Z,101149.36
2018-12-19T14:00:06.701Z,101160.38
2018-12-19T14:02:34.189Z,101152.41
2018-12-19T14:05:01.785Z,101149.78
2018-12-19T14:07:29.346Z,101153.76
2018-12-19T14:09:56.869Z,101147.56
2018-12-19T14:12:24.383Z,101154.65
2018-12-19T14:14:51.894Z,101146.65
2018-12-19T14:17:19.708Z,101155.06
2018-12-19T14:19:47.248Z,101144.90
2018-12-19T14:22:15.319Z,101148.44
2018-12-19T14:24:42.846Z,101133.86
2018-12-19T14:27:10.449Z,101136.95
2018-12-19T14:29:38.026Z,101128.55
2018-12-19T14:32:05.585Z,101130.33
2018-12-19T14:34:33.228Z,101142.26
2018-12-19T14:37:00.819Z,101123.28
2018-12-19T14:39:28.386Z,101128.59
2018-12-19T14:41:56.003Z,101127.25
2018-12-19T14:44:23.586Z,101128.58
2018-12-19T14:46:51.143Z,101135.27
2018-12-19T14:49:18.676Z,101133.89
2018-12-19T14:51:46.271Z,101141.41
2018-12-19T14:54:13.773Z,101134.80
2018-12-19T14:56:41.290Z,101134.78
2018-12-19T14:59:08.827Z,101144.49
2018-12-19T15:01:36.362Z,101135.69
2018-12-19T15:04:03.914Z,101141.84
2018-12-19T15:06:31.415Z,101134.80
2018-12-19T15:08:58.973Z,101129.47
2018-12-19T15:11:27.084Z,101148.45
2018-12-19T15:13:54.731Z,101145.37
2018-12-19T15:16:23.041Z,101144.48
2018-12-19T15:18:50.617Z,101153.76
2018-12-19T15:21:18.703Z,101154.17
2018-12-19T15:23:46.266Z,101138.26
2018-12-19T15:26:13.759Z,101147.92
2018-12-19T15:28:41.385Z,101148.84
2018-12-19T15:31:08.922Z,101155.91
2018-12-19T15:33:36.444Z,101154.17
2018-12-19T15:36:04.191Z,101148.02
2018-12-19T15:38:31.826Z,101150.66
2018-12-19T15:40:59.385Z,101138.74
2018-12-19T15:43:26.981Z,101131.20
2018-12-19T15:45:54.489Z,101136.50
2018-12-19T15:48:21.990Z,101136.52
2018-12-19T15:50:49.493Z,101135.59
2018-12-19T15:53:17.116Z,101133.87
2018-12-19T15:55:44.633Z,101135.61
2018-12-19T15:58:12.136Z,101129.88
2018-12-19T16:00:39.733Z,101132.08
2018-12-19T16:03:07.338Z,101134.70
2018-12-19T16:05:34.888Z,101124.58
2018-12-19T16:08:02.454Z,101128.08
2018-12-19T16:10:29.974Z,101125.02
2018-12-19T16:12:57.580Z,101124.59
2018-12-19T16:15:25.092Z,101121.92
2018-12-19T16:17:52.625Z,101120.58
2018-12-19T16:20:20.250Z,101123.68
2018-12-19T16:22:47.882Z,101122.30
2018-12-19T16:25:15.921Z,101124.97
2018-12-19T16:27:44.085Z,101124.52
2018-12-19T16:30:11.654Z,101124.52
2018-12-19T16:32:39.174Z,101118.77
2018-12-19T16:35:06.776Z,101114.79
2018-12-19T16:37:34.413Z,101114.39
2018-12-19T16:40:01.960Z,101114.79
2018-12-19T16:42:29.515Z,101112.59
2018-12-19T16:44:57.119Z,101107.27
2018-12-19T16:47:24.637Z,101108.17
2018-12-19T16:49:52.231Z,101102.89
2018-12-19T16:52:19.721Z,101101.11
2018-12-19T16:54:47.289Z,101110.34
2018-12-19T16:57:14.801Z,101105.52
2018-12-19T16:59:42.408Z,101104.64
2018-12-19T17:02:09.948Z,101099.77
2018-12-19T17:04:37.561Z,101096.67
2018-12-19T17:07:05.115Z,101090.48
2018-12-19T17:09:32.637Z,101100.19
2018-12-19T17:12:00.261Z,101101.06
2018-12-19T17:14:27.807Z,101101.05
2018-12-19T17:16:55.362Z,101101.03
2018-12-19T17:19:22.871Z,101106.36
2018-12-19T17:21:50.375Z,101106.36
2018-12-19T17:24:17.932Z,101099.73
2018-12-19T17:26:45.802Z,101088.65
2018-12-19T17:29:13.316Z,101086.01
2018-12-19T17:31:40.831Z,101069.22
2018-12-19T17:34:08.328Z,101070.97
2018-12-19T17:36:36.041Z,101067.90
2018-12-19T17:39:05.561Z,101072.72
2018-12-19T17:41:33.111Z,101073.64
2018-12-19T17:44:00.621Z,101067.45
2018-12-19T17:46:28.334Z,101069.22
2018-12-19T17:48:55.846Z,101069.66
2018-12-19T17:51:23.357Z,101067.02
2018-12-19T17:53:50.875Z,101066.52
2018-12-19T17:56:18.388Z,101060.81
2018-12-19T17:58:45.933Z,101052.41
2018-12-19T18:01:13.495Z,101057.73
2018-12-19T18:03:41.044Z,101056.83
2018-12-19T18:06:08.553Z,101063.92
2018-12-19T18:08:36.059Z,101074.54
2018-12-19T18:11:03.594Z,101064.78
2018-12-19T18:13:31.186Z,101063.03
2018-12-19T18:15:58.847Z,101078.05
2018-12-19T18:18:26.424Z,101080.67
2018-12-19T18:20:53.992Z,101082.92
2018-12-19T18:23:21.638Z,101081.61
2018-12-19T18:25:49.192Z,101086.91
2018-12-19T18:28:16.780Z,101080.69
2018-12-19T18:30:44.377Z,101076.70
2018-12-19T18:33:11.903Z,101074.03
2018-12-19T18:35:39.503Z,101078.86
2018-12-19T18:38:07.004Z,101081.53
2018-12-19T18:40:34.520Z,101085.08
2018-12-19T18:43:02.114Z,101077.13
2018-12-19T18:45:29.829Z,101074.95
2018-12-19T18:47:57.436Z,101069.17
2018-12-19T18:50:24.992Z,101080.20
2018-12-19T18:52:53.062Z,101083.34
2018-12-19T18:55:20.580Z,101072.27
2018-12-19T18:57:48.280Z,101080.77
2018-12-19T19:00:17.874Z,101086.45
2018-12-19T19:02:45.435Z,101075.38
2018-12-19T19:05:13.176Z,101081.56
2018-12-19T19:07:40.799Z,101080.66
2018-12-19T19:10:08.574Z,101093.12
2018-12-19T19:12:36.106Z,101088.23
2018-12-19T19:15:07.337Z,101085.13
2018-12-19T19:17:34.850Z,101083.41
2018-12-19T19:20:02.471Z,101085.17
2018-12-19T19:22:30.047Z,101087.73
2018-12-19T19:24:57.550Z,101086.01
2018-12-19T19:27:25.123Z,101071.88
2018-12-19T19:29:52.655Z,101075.39
2018-12-19T19:32:20.170Z,101066.97
2018-12-19T19:34:47.673Z,101078.05
2018-12-19T19:37:15.190Z,101070.52
2018-12-19T19:39:42.755Z,101070.95
2018-12-19T19:42:10.445Z,101068.30
2018-12-19T19:44:38.004Z,101064.80
2018-12-19T19:47:05.656Z,101070.50
2018-12-19T19:49:33.271Z,101074.08
2018-12-19T19:52:00.791Z,101074.93
2018-12-19T19:54:28.955Z,101077.11
2018-12-19T19:56:56.485Z,101066.52
2018-12-19T19:59:24.480Z,101066.53
2018-12-19T20:01:52.028Z,101063.87
2018-12-19T20:04:19.579Z,101052.84
2018-12-19T20:06:47.143Z,101055.97
2018-12-19T20:09:14.641Z,101054.14
2018-12-19T20:11:42.326Z,101055.05
2018-12-19T20:14:09.841Z,101047.94
2018-12-19T20:19:33.710Z,101057.22
2018-12-19T20:22:01.272Z,101060.79
2018-12-19T20:24:28.773Z,101058.56
2018-12-19T20:26:56.336Z,101055.84
2018-12-19T20:29:23.850Z,101059.89
2018-12-19T20:31:51.384Z,101060.75
2018-12-19T20:34:18.944Z,101059.85
2018-12-19T20:36:46.445Z,101061.63
2018-12-19T20:39:13.970Z,101060.75
2018-12-19T20:41:41.522Z,101065.58
2018-12-19T20:44:09.110Z,101069.58
2018-12-19T20:46:36.694Z,101066.88
2018-12-19T20:49:04.343Z,101067.76
2018-12-19T20:51:31.898Z,101073.06
2018-12-19T20:53:59.481Z,101074.86
2018-12-19T20:56:27.108Z,101077.92
2018-12-19T20:58:54.779Z,101080.59
2018-12-19T21:01:22.432Z,101075.74
2018-12-19T21:03:50.097Z,101071.77
2018-12-19T21:06:17.662Z,101086.34
2018-12-19T21:08:45.176Z,101087.20
2018-12-19T21:11:12.694Z,101086.34
2018-12-19T21:13:46.537Z,101076.20
2018-12-19T21:16:10.560Z,101078.46
2018-12-19T21:18:43.053Z,101068.23
2018-12-19T21:21:10.574Z,101073.53
2018-12-19T21:23:38.124Z,101072.21
2018-12-19T21:26:05.816Z,101073.96
2018-12-19T21:28:33.415Z,101074.02
2018-12-19T21:31:01.041Z,101081.50
2018-12-19T21:33:28.617Z,101074.03
2018-12-19T21:35:56.184Z,101073.98
2018-12-19T21:38:23.742Z,101069.11
2018-12-19T21:40:51.245Z,101066.95
2018-12-19T21:43:18.842Z,101065.59
2018-12-19T21:45:51.690Z,101066.95
2018-12-19T21:48:15.988Z,101073.58
2018-12-19T21:50:43.612Z,101073.11
2018-12-19T21:53:11.150Z,101079.73
2018-12-19T21:55:38.693Z,101080.59
2018-12-19T21:58:06.191Z,101077.09
2018-12-19T22:00:35.526Z,101078.84
2018-12-19T22:03:05.001Z,101084.14
2018-12-19T22:05:32.652Z,101077.98
2018-12-19T22:08:00.396Z,101072.28
2018-12-19T22:10:27.953Z,101066.53
2018-12-19T22:12:55.721Z,101074.02
2018-12-19T22:15:23.325Z,101070.48
2018-12-19T22:17:52.877Z,101074.88
2018-12-19T22:20:20.405Z,101081.08
2018-12-19T22:22:47.963Z,101080.18
2018-12-19T22:25:15.556Z,101073.11
2018-12-19T22:27:43.120Z,101077.09
2018-12-19T22:30:10.719Z,101074.86
2018-12-19T22:32:38.308Z,101077.94
2018-12-19T22:35:05.855Z,101079.27
2018-12-19T22:37:33.396Z,101073.53
2018-12-19T22:40:00.989Z,101065.58
2018-12-19T22:42:28.494Z,101068.66
2018-12-19T22:44:55.993Z,101063.83
2018-12-19T22:47:23.594Z,101066.50
2018-12-19T22:49:51.184Z,101065.58
2018-12-19T22:52:19.225Z,101062.48
2018-12-19T22:54:46.886Z,101058.53
2018-12-19T22:57:14.445Z,101057.17
2018-12-19T22:59:42.005Z,101052.80
2018-12-19T23:02:15.062Z,101048.70
2018-12-19T23:04:42.720Z,101051.83
2018-12-19T23:07:10.389Z,101050.09
2018-12-19T23:09:37.893Z,101049.67
2018-12-19T23:12:05.506Z,101041.69
2018-12-19T23:14:33.130Z,101051.47
2018-12-19T23:17:02.723Z,101053.20
2018-12-19T23:19:30.244Z,101053.66
2018-12-19T23:21:57.835Z,101055.83
2018-12-19T23:24:25.395Z,101050.97
2018-12-19T23:26:52.922Z,101058.93
2018-12-19T23:29:20.534Z,101053.61
2018-12-19T23:31:48.114Z,101060.66
2018-12-19T23:34:15.752Z,101056.26
2018-12-19T23:36:43.343Z,101056.26
2018-12-19T23:39:10.848Z,101059.36
2018-12-19T23:41:38.351Z,101051.81
2018-12-19T23:44:06.411Z,101057.55
2018-12-19T23:46:34.560Z,101053.59
2018-12-19T23:49:02.130Z,101046.08
2018-12-19T23:51:29.979Z,101042.55
2018-12-19T23:53:57.776Z,101044.30
2018-12-19T23:56:25.386Z,101044.77
2018-12-19T23:58:53.123Z,101044.30
